createdAt,value
2024-02-10T00:01:52.124Z,1.00
2024-02-10T00:04:21.716Z,1.00
2024-02-10T00:06:48.666Z,0.93
2024-02-10T00:09:15.689Z,0.73
2024-02-10T00:11:42.594Z,0.80
2024-02-10T00:14:10.067Z,1.57
2024-02-10T00:16:37.015Z,1.20
2024-02-10T00:19:04.097Z,1.33
2024-02-10T00:21:33.717Z,1.27
2024-02-10T00:24:00.645Z,0.77
2024-02-10T00:26:27.512Z,0.83
2024-02-10T00:28:54.752Z,1.10
2024-02-10T00:31:21.830Z,0.70
2024-02-10T00:33:48.790Z,0.70
2024-02-10T00:36:15.671Z,1.03
2024-02-10T00:38:45.314Z,1.40
2024-02-10T00:41:12.543Z,0.60
2024-02-10T00:43:40.391Z,1.43
2024-02-10T00:46:07.303Z,0.83
2024-02-10T00:48:34.201Z,1.23
2024-02-10T00:51:01.172Z,0.80
2024-02-10T00:53:28.090Z,0.60
2024-02-10T00:55:57.634Z,0.60
2024-02-10T00:58:24.591Z,0.93
2024-02-10T01:00:51.561Z,0.77
2024-02-10T01:03:18.509Z,0.50
2024-02-10T01:05:45.441Z,1.70
2024-02-10T01:08:12.354Z,0.50
2024-02-10T01:10:39.308Z,0.50
2024-02-10T01:13:08.844Z,0.50
2024-02-10T01:15:35.869Z,0.40
2024-02-10T01:18:03.054Z,0.50
2024-02-10T01:20:30.151Z,0.60
2024-02-10T01:22:57.260Z,0.40
2024-02-10T01:25:24.414Z,0.57
2024-02-10T01:27:51.424Z,0.50
2024-02-10T01:30:21.043Z,0.67
2024-02-10T01:32:48.545Z,0.97
2024-02-10T01:35:15.657Z,0.70
2024-02-10T01:37:42.598Z,0.70
2024-02-10T01:40:11.406Z,0.60
2024-02-10T01:42:38.925Z,0.57
2024-02-10T01:45:08.476Z,0.50
2024-02-10T01:47:38.744Z,0.50
2024-02-10T01:50:07.073Z,0.63
2024-02-10T01:52:36.394Z,1.13
2024-02-10T01:55:03.691Z,0.60
2024-02-10T01:57:30.751Z,0.60
2024-02-10T01:59:57.665Z,0.60
2024-02-10T02:02:24.577Z,0.50
2024-02-10T02:04:54.347Z,0.60
2024-02-10T02:07:21.346Z,0.53
2024-02-10T02:09:48.271Z,0.80
2024-02-10T02:12:15.232Z,0.50
2024-02-10T02:14:42.166Z,0.90
2024-02-10T02:17:09.077Z,1.10
2024-02-10T02:19:36.404Z,0.50
2024-02-10T02:22:05.976Z,0.60
2024-02-10T02:24:35.506Z,1.00
2024-02-10T02:27:02.725Z,0.53
2024-02-10T02:29:29.776Z,1.27
2024-02-10T02:31:56.735Z,0.90
2024-02-10T02:34:23.657Z,0.90
2024-02-10T02:36:50.569Z,0.50
2024-02-10T02:39:17.498Z,0.73
2024-02-10T02:41:46.981Z,0.50
2024-02-10T02:44:14.139Z,0.60
2024-02-10T02:46:41.139Z,0.50
2024-02-10T02:49:08.217Z,0.47
2024-02-10T02:51:35.124Z,0.40
2024-02-10T02:54:02.039Z,0.43
2024-02-10T02:56:28.967Z,0.60
2024-02-10T02:58:58.600Z,0.40
2024-02-10T03:01:25.710Z,0.93
2024-02-10T03:03:52.732Z,0.50
2024-02-10T03:06:20.446Z,0.40
2024-02-10T03:08:48.212Z,0.70
2024-02-10T03:11:15.319Z,0.63
2024-02-10T03:13:42.328Z,1.30
2024-02-10T03:16:11.863Z,0.60
2024-02-10T03:18:38.929Z,0.50
2024-02-10T03:21:06.052Z,0.43
2024-02-10T03:23:32.978Z,0.63
2024-02-10T03:26:02.038Z,0.67
2024-02-10T03:28:29.050Z,0.50
2024-02-10T03:30:56.170Z,0.80
2024-02-10T03:33:25.767Z,0.70
2024-02-10T03:35:52.784Z,0.70
2024-02-10T03:38:19.671Z,0.80
2024-02-10T03:40:46.594Z,1.13
2024-02-10T03:43:13.577Z,2.07
2024-02-10T03:45:40.532Z,1.70
2024-02-10T03:48:07.831Z,1.07
2024-02-10T03:50:37.449Z,0.80
2024-02-10T03:53:04.820Z,1.20
2024-02-10T03:55:31.933Z,0.60
2024-02-10T03:57:58.988Z,1.17
2024-02-10T04:00:26.686Z,0.57
2024-02-10T04:02:53.698Z,0.83
2024-02-10T04:05:20.740Z,0.67
2024-02-10T04:07:50.272Z,0.83
2024-02-10T04:10:17.320Z,0.80
2024-02-10T04:12:44.529Z,0.70
2024-02-10T04:15:11.992Z,1.00
2024-02-10T04:17:39.306Z,1.00
2024-02-10T04:20:07.779Z,0.90
2024-02-10T04:22:35.395Z,0.73
2024-02-10T04:25:05.302Z,1.03
2024-02-10T04:27:32.217Z,0.80
2024-02-10T04:29:59.098Z,1.47
2024-02-10T04:32:26.018Z,2.03
2024-02-10T04:34:52.959Z,1.43
2024-02-10T04:37:19.927Z,0.97
2024-02-10T04:39:46.855Z,1.07
2024-02-10T04:42:16.581Z,1.77
2024-02-10T04:44:46.639Z,1.23
2024-02-10T04:47:13.547Z,0.87
2024-02-10T04:49:40.481Z,0.90
2024-02-10T04:52:07.386Z,1.10
2024-02-10T04:54:34.269Z,1.40
2024-02-10T04:57:01.189Z,0.83
2024-02-10T04:59:30.649Z,0.70
2024-02-10T05:01:58.016Z,0.70
2024-02-10T05:04:24.999Z,0.70
2024-02-10T05:06:51.904Z,0.80
2024-02-10T05:09:18.807Z,0.87
2024-02-10T05:11:45.771Z,0.63
2024-02-10T05:14:12.699Z,0.70
2024-02-10T05:16:42.232Z,0.60
2024-02-10T05:19:09.291Z,1.47
2024-02-10T05:21:36.232Z,1.40
2024-02-10T05:24:03.498Z,1.50
2024-02-10T05:26:33.757Z,0.80
2024-02-10T05:29:00.721Z,0.73
2024-02-10T05:31:27.643Z,0.83
2024-02-10T05:33:57.229Z,0.80
2024-02-10T05:36:24.158Z,0.93
2024-02-10T05:38:51.030Z,1.33
2024-02-10T05:41:17.922Z,1.70
2024-02-10T05:43:44.813Z,1.30
2024-02-10T05:46:11.712Z,1.47
2024-02-10T05:48:39.191Z,1.97
2024-02-10T05:51:08.749Z,1.73
2024-02-10T05:53:35.617Z,1.77
2024-02-10T05:56:02.625Z,1.30
2024-02-10T05:58:29.560Z,2.10
2024-02-10T06:00:56.757Z,2.27
2024-02-10T06:03:23.723Z,1.27
2024-02-10T06:05:50.732Z,1.10
2024-02-10T06:08:20.278Z,1.13
2024-02-10T06:10:47.263Z,2.00
2024-02-10T06:13:14.157Z,1.30
2024-02-10T06:15:41.094Z,1.87
2024-02-10T06:18:08.067Z,1.20
2024-02-10T06:20:35.177Z,1.63
2024-02-10T06:23:02.260Z,1.90
2024-02-10T06:25:31.884Z,1.67
2024-02-10T06:28:01.023Z,1.60
2024-02-10T06:30:29.808Z,1.40
2024-02-10T06:32:56.792Z,1.73
2024-02-10T06:35:24.387Z,1.73
2024-02-10T06:37:51.578Z,1.50
2024-02-10T06:40:20.060Z,1.40
2024-02-10T06:42:49.651Z,2.10
2024-02-10T06:45:17.007Z,3.00
2024-02-10T06:47:44.698Z,3.53
2024-02-10T06:50:11.884Z,10.83
2024-02-10T06:52:39.004Z,10.73
2024-02-10T06:55:06.863Z,11.70
2024-02-10T06:57:33.783Z,12.10
2024-02-10T07:00:03.492Z,7.17
2024-02-10T07:02:30.438Z,5.27
2024-02-10T07:04:57.419Z,3.77
2024-02-10T07:07:24.526Z,3.37
2024-02-10T07:09:51.441Z,5.13
2024-02-10T07:12:18.464Z,2.87
2024-02-10T07:14:45.426Z,4.30
2024-02-10T07:17:14.896Z,2.50
2024-02-10T07:19:42.048Z,4.13
2024-02-10T07:22:08.948Z,9.77
2024-02-10T07:24:35.876Z,22.40
2024-02-10T07:27:02.745Z,20.93
2024-02-10T07:29:29.627Z,17.60
2024-02-10T07:31:56.602Z,16.53
2024-02-10T07:34:26.187Z,12.33
2024-02-10T07:36:53.134Z,7.70
2024-02-10T07:39:20.027Z,5.67
2024-02-10T07:41:46.895Z,11.30
2024-02-10T07:44:13.777Z,4.53
2024-02-10T07:46:41.987Z,4.07
2024-02-10T07:49:08.937Z,3.60
2024-02-10T07:51:38.460Z,2.70
2024-02-10T07:54:05.467Z,2.47
2024-02-10T07:56:32.536Z,2.20
2024-02-10T07:58:59.821Z,2.97
2024-02-10T08:01:27.340Z,2.00
2024-02-10T08:03:54.642Z,1.83
2024-02-10T08:06:23.136Z,2.70
2024-02-10T08:08:52.621Z,2.13
2024-02-10T08:11:19.557Z,2.27
2024-02-10T08:13:46.544Z,2.17
2024-02-10T08:16:13.567Z,2.40
2024-02-10T08:18:40.567Z,2.57
2024-02-10T08:21:07.529Z,2.53
2024-02-10T08:23:34.407Z,2.03
2024-02-10T08:26:04.141Z,1.93
2024-02-10T08:28:31.101Z,1.93
2024-02-10T08:30:58.107Z,2.20
2024-02-10T08:33:25.080Z,2.23
2024-02-10T08:35:52.186Z,4.20
2024-02-10T08:41:24.229Z,4.40
2024-02-10T08:43:51.374Z,3.80
2024-02-10T08:46:18.690Z,2.63
2024-02-10T08:48:45.844Z,2.53
2024-02-10T08:51:13.260Z,3.10
2024-02-10T08:53:40.320Z,2.87
2024-02-10T08:56:08.169Z,3.20
2024-02-10T08:58:37.769Z,2.50
2024-02-10T09:01:05.227Z,3.27
2024-02-10T09:03:32.294Z,2.67
2024-02-10T09:05:59.310Z,2.90
2024-02-10T09:08:26.254Z,2.50
2024-02-10T09:10:53.156Z,2.67
2024-02-10T09:13:20.087Z,2.37
2024-02-10T09:15:49.587Z,3.40
2024-02-10T09:18:16.573Z,2.27
2024-02-10T09:20:43.696Z,1.90
2024-02-10T09:23:10.774Z,1.30
2024-02-10T09:25:38.380Z,1.20
2024-02-10T09:28:05.980Z,1.67
2024-02-10T09:30:32.893Z,1.27
2024-02-10T09:33:02.779Z,1.43
2024-02-10T09:35:39.585Z,1.23
2024-02-10T09:38:06.944Z,2.33
2024-02-10T09:40:33.935Z,1.87
2024-02-10T09:43:03.865Z,2.43
2024-02-10T09:45:33.149Z,1.47
2024-02-10T09:48:04.374Z,1.33
2024-02-10T09:50:37.531Z,2.30
2024-02-10T09:53:05.527Z,2.63
2024-02-10T09:55:32.518Z,2.87
2024-02-10T09:58:00.732Z,1.50
2024-02-10T10:00:27.653Z,0.93
2024-02-10T10:02:54.559Z,1.10
2024-02-10T10:05:24.214Z,2.07
2024-02-10T10:07:51.176Z,1.33
2024-02-10T10:10:18.353Z,1.10
2024-02-10T10:12:45.296Z,1.30
2024-02-10T10:15:12.213Z,1.47
2024-02-10T10:17:39.174Z,1.87
2024-02-10T10:20:07.192Z,1.67
2024-02-10T10:22:38.040Z,1.93
2024-02-10T10:25:08.054Z,1.63
2024-02-10T10:27:35.765Z,3.93
2024-02-10T10:30:03.310Z,3.17
2024-02-10T10:32:31.308Z,2.00
2024-02-10T10:35:00.464Z,2.07
2024-02-10T10:37:29.269Z,1.97
2024-02-10T10:39:59.310Z,1.90
2024-02-10T10:42:26.660Z,2.27
2024-02-10T10:44:56.818Z,2.00
2024-02-10T10:47:23.759Z,1.63
2024-02-10T10:49:51.107Z,2.13
2024-02-10T10:52:18.082Z,3.00
2024-02-10T10:54:45.630Z,2.40
2024-02-10T10:57:19.455Z,2.53
2024-02-10T10:59:51.640Z,2.43
2024-02-10T11:02:24.429Z,2.07
2024-02-10T11:05:03.624Z,2.33
2024-02-10T11:07:34.597Z,2.10
2024-02-10T11:10:01.606Z,2.17
2024-02-10T11:12:33.399Z,2.80
2024-02-10T11:15:00.401Z,4.40
2024-02-10T11:17:27.379Z,3.13
2024-02-10T11:20:05.504Z,2.90
2024-02-10T11:22:35.690Z,3.83
2024-02-10T11:25:02.816Z,2.70
2024-02-10T11:27:32.553Z,3.10
2024-02-10T11:29:59.474Z,3.83
2024-02-10T11:32:28.713Z,3.77
2024-02-10T11:34:55.750Z,3.47
2024-02-10T11:37:22.934Z,2.80
2024-02-10T11:39:49.917Z,3.13
2024-02-10T11:42:16.765Z,2.83
2024-02-10T11:44:46.300Z,5.57
2024-02-10T11:47:13.248Z,5.50
2024-02-10T11:49:40.294Z,4.60
2024-02-10T11:52:07.522Z,3.77
2024-02-10T11:54:34.736Z,3.40
2024-02-10T11:57:01.809Z,3.80
2024-02-10T11:59:29.178Z,9.57
2024-02-10T12:01:59.110Z,12.47
2024-02-10T12:04:26.954Z,7.80
2024-02-10T12:06:54.041Z,5.73
2024-02-10T12:09:21.390Z,5.80
2024-02-10T12:11:56.411Z,3.53
2024-02-10T12:14:23.327Z,3.67
2024-02-10T12:16:50.251Z,3.23
2024-02-10T12:19:21.048Z,2.90
2024-02-10T12:21:48.262Z,2.50
2024-02-10T12:24:15.743Z,2.87
2024-02-10T12:26:42.705Z,2.20
2024-02-10T12:29:10.233Z,2.47
2024-02-10T12:31:37.232Z,3.37
2024-02-10T12:34:04.180Z,2.50
2024-02-10T12:36:33.746Z,3.73
2024-02-10T12:39:00.720Z,3.50
2024-02-10T12:41:27.622Z,3.33
2024-02-10T12:43:54.632Z,3.93
2024-02-10T12:46:21.594Z,4.97
2024-02-10T12:48:48.544Z,2.33
2024-02-10T12:51:15.548Z,3.23
2024-02-10T12:53:45.112Z,2.50
2024-02-10T12:56:12.189Z,2.17
2024-02-10T12:58:39.331Z,2.73
2024-02-10T13:01:06.360Z,2.43
2024-02-10T13:03:33.305Z,2.00
2024-02-10T13:06:00.397Z,2.87
2024-02-10T13:08:27.401Z,3.20
2024-02-10T13:10:57.044Z,3.07
2024-02-10T13:13:24.126Z,2.23
2024-02-10T13:15:51.133Z,2.97
2024-02-10T13:18:24.500Z,2.07
2024-02-10T13:20:57.302Z,2.60
2024-02-10T13:23:24.194Z,3.00
2024-02-10T13:25:51.149Z,3.40
2024-02-10T13:28:22.207Z,3.30
2024-02-10T13:30:49.239Z,4.13
2024-02-10T13:33:16.226Z,4.53
2024-02-10T13:35:43.337Z,3.40
2024-02-10T13:38:10.339Z,3.27
2024-02-10T13:40:37.365Z,2.50
2024-02-10T13:43:04.644Z,4.50
2024-02-10T13:45:34.162Z,4.10
2024-02-10T13:48:01.131Z,2.67
2024-02-10T13:50:28.139Z,3.03
2024-02-10T13:52:55.130Z,3.53
2024-02-10T13:55:22.146Z,4.17
2024-02-10T13:57:49.085Z,2.33
2024-02-10T14:00:17.032Z,3.40
2024-02-10T14:02:46.515Z,5.53
2024-02-10T14:05:13.661Z,4.13
2024-02-10T14:07:41.100Z,5.23
2024-02-10T14:10:10.078Z,2.90
2024-02-10T14:12:37.012Z,6.77
2024-02-10T14:15:04.628Z,3.33
2024-02-10T14:17:31.549Z,4.17
2024-02-10T14:20:01.204Z,2.70
2024-02-10T14:22:28.250Z,2.93
2024-02-10T14:24:55.178Z,2.77
2024-02-10T14:27:22.223Z,2.37
2024-02-10T14:29:49.103Z,3.00
2024-02-10T14:32:16.851Z,2.40
2024-02-10T14:34:43.783Z,3.13
2024-02-10T14:37:13.313Z,3.23
2024-02-10T14:39:40.177Z,3.30
2024-02-10T14:42:07.146Z,3.00
2024-02-10T14:44:34.015Z,2.43
2024-02-10T14:47:00.976Z,2.87
2024-02-10T14:49:28.147Z,4.43
2024-02-10T14:51:55.099Z,3.10
2024-02-10T14:54:24.624Z,3.17
2024-02-10T14:56:51.533Z,3.60
2024-02-10T14:59:18.512Z,3.30
2024-02-10T15:01:45.435Z,2.33
2024-02-10T15:04:12.647Z,3.43
2024-02-10T15:06:39.857Z,4.13
2024-02-10T15:09:06.962Z,3.43
2024-02-10T15:11:36.629Z,3.20
2024-02-10T15:14:03.628Z,2.50
2024-02-10T15:16:30.611Z,3.10
2024-02-10T15:18:57.594Z,3.67
2024-02-10T15:21:24.493Z,4.00
2024-02-10T15:23:51.433Z,2.30
2024-02-10T15:26:20.025Z,2.80
2024-02-10T15:28:49.972Z,3.73
2024-02-10T15:31:16.904Z,2.97
2024-02-10T15:33:43.902Z,3.70
2024-02-10T15:36:10.831Z,3.93
2024-02-10T15:38:37.795Z,5.47
2024-02-10T15:41:05.117Z,2.93
2024-02-10T15:43:32.104Z,4.33
2024-02-10T15:46:01.783Z,4.13
2024-02-10T15:48:28.795Z,5.70
2024-02-10T15:50:56.391Z,7.70
2024-02-10T15:53:24.209Z,6.97
2024-02-10T15:55:51.466Z,4.67
2024-02-10T15:58:18.515Z,5.90
2024-02-10T16:00:45.816Z,5.23
2024-02-10T16:03:15.514Z,6.43
2024-02-10T16:05:42.572Z,5.37
2024-02-10T16:08:09.686Z,5.57
2024-02-10T16:10:36.682Z,5.27
2024-02-10T16:13:03.743Z,5.50
2024-02-10T16:15:30.652Z,4.20
2024-02-10T16:17:57.645Z,3.57
2024-02-10T16:20:27.244Z,3.80
2024-02-10T16:22:54.280Z,3.63
2024-02-10T16:25:21.978Z,4.00
2024-02-10T16:27:48.885Z,4.27
2024-02-10T16:30:15.940Z,3.07
2024-02-10T16:32:42.964Z,3.93
2024-02-10T16:35:10.057Z,3.60
2024-02-10T16:37:39.748Z,3.73
2024-02-10T16:40:10.130Z,3.93
2024-02-10T16:42:36.988Z,3.63
2024-02-10T16:45:04.200Z,3.20
2024-02-10T16:47:31.182Z,3.10
2024-02-10T16:49:58.141Z,4.40
2024-02-10T16:52:25.126Z,3.20
2024-02-10T16:54:54.619Z,4.33
2024-02-10T16:57:21.532Z,3.33
2024-02-10T16:59:48.444Z,4.53
2024-02-10T17:02:15.398Z,4.07
2024-02-10T17:04:42.439Z,3.87
2024-02-10T17:07:09.350Z,3.87
2024-02-10T17:09:36.269Z,5.37
2024-02-10T17:12:06.483Z,7.17
2024-02-10T17:14:33.378Z,8.47
2024-02-10T17:17:00.407Z,6.87
2024-02-10T17:19:27.490Z,7.90
2024-02-10T17:21:54.485Z,7.57
2024-02-10T17:24:21.421Z,7.27
2024-02-10T17:26:48.374Z,7.43
2024-02-10T17:29:18.024Z,6.73
2024-02-10T17:31:47.484Z,5.63
2024-02-10T17:34:14.475Z,6.43
2024-02-10T17:36:41.424Z,7.37
2024-02-10T17:39:08.308Z,8.03
2024-02-10T17:41:35.231Z,8.40
2024-02-10T17:44:02.156Z,7.03
2024-02-10T17:46:31.733Z,8.20
2024-02-10T17:48:58.743Z,8.93
2024-02-10T17:51:25.664Z,8.40
2024-02-10T17:53:52.646Z,6.80
2024-02-10T17:56:19.560Z,6.43
2024-02-10T17:58:46.722Z,5.10
2024-02-10T18:01:13.636Z,5.43
2024-02-10T18:03:43.184Z,5.17
2024-02-10T18:06:10.197Z,8.17
2024-02-10T18:08:37.159Z,7.63
2024-02-10T18:11:04.333Z,6.87
2024-02-10T18:13:31.351Z,7.63
2024-02-10T18:15:58.259Z,7.87
2024-02-10T18:18:25.175Z,7.83
2024-02-10T18:20:54.682Z,6.73
2024-02-10T18:23:21.574Z,8.30
2024-02-10T18:25:48.795Z,7.50
2024-02-10T18:28:15.792Z,9.00
2024-02-10T18:30:42.786Z,7.57
2024-02-10T18:33:09.777Z,8.00
2024-02-10T18:35:36.720Z,7.63
2024-02-10T18:38:06.470Z,6.97
2024-02-10T18:40:33.456Z,7.20
2024-02-10T18:43:01.147Z,10.03
2024-02-10T18:45:28.646Z,10.07
2024-02-10T18:47:55.799Z,10.10
2024-02-10T18:50:22.957Z,9.47
2024-02-10T18:52:50.074Z,12.40
2024-02-10T18:55:19.803Z,8.97
2024-02-10T18:57:47.207Z,8.27
2024-02-10T19:00:16.005Z,8.73
2024-02-10T19:02:42.977Z,7.50
2024-02-10T19:05:09.976Z,6.37
2024-02-10T19:07:37.016Z,6.30
2024-02-10T19:10:04.487Z,3.87
2024-02-10T19:12:34.770Z,3.60
2024-02-10T19:15:01.685Z,3.37
2024-02-10T19:17:28.622Z,4.43
2024-02-10T19:19:55.586Z,3.80
2024-02-10T19:22:22.480Z,3.93
2024-02-10T19:24:49.393Z,5.10
2024-02-10T19:27:16.281Z,4.57
2024-02-10T19:29:45.815Z,5.60
2024-02-10T19:32:12.795Z,5.50
2024-02-10T19:34:40.290Z,4.53
2024-02-10T19:37:07.421Z,4.10
2024-02-10T19:39:34.344Z,4.50
2024-02-10T19:42:01.270Z,3.93
2024-02-10T19:44:28.569Z,5.33
2024-02-10T19:46:58.101Z,4.53
2024-02-10T19:49:25.069Z,4.27
2024-02-10T19:51:52.109Z,3.90
2024-02-10T19:54:19.131Z,5.30
2024-02-10T19:56:45.985Z,5.87
2024-02-10T19:59:13.023Z,5.50
2024-02-10T20:01:40.224Z,7.50
2024-02-10T20:04:09.718Z,6.60
2024-02-10T20:06:36.696Z,4.67
2024-02-10T20:09:04.101Z,4.93
2024-02-10T20:11:31.081Z,4.63
2024-02-10T20:13:58.099Z,4.80
2024-02-10T20:16:25.027Z,6.10
2024-02-10T20:18:52.050Z,6.13
2024-02-10T20:21:21.626Z,5.17
2024-02-10T20:23:48.575Z,5.20
2024-02-10T20:26:15.735Z,5.97
2024-02-10T20:28:44.229Z,5.70
2024-02-10T20:31:14.524Z,4.87
2024-02-10T20:33:41.620Z,5.83
2024-02-10T20:36:08.649Z,5.00
2024-02-10T20:38:39.764Z,5.13
2024-02-10T20:41:06.673Z,4.10
2024-02-10T20:43:34.111Z,4.43
2024-02-10T20:46:01.037Z,4.67
2024-02-10T20:48:28.045Z,5.90
2024-02-10T20:50:55.032Z,5.03
2024-02-10T20:53:21.898Z,4.77
2024-02-10T20:55:51.450Z,5.07
2024-02-10T20:58:18.495Z,4.57
2024-02-10T21:00:46.337Z,5.23
2024-02-10T21:03:13.346Z,10.60
2024-02-10T21:05:40.415Z,5.03
2024-02-10T21:08:07.942Z,5.40
2024-02-10T21:10:34.897Z,4.97
2024-02-10T21:13:04.747Z,6.53
2024-02-10T21:15:31.665Z,5.93
2024-02-10T21:17:58.695Z,7.13
2024-02-10T21:20:25.700Z,6.10
2024-02-10T21:22:52.710Z,7.50
2024-02-10T21:25:19.663Z,5.60
2024-02-10T21:27:46.537Z,5.87
2024-02-10T21:30:16.385Z,5.47
2024-02-10T21:32:43.353Z,5.13
2024-02-10T21:35:10.429Z,6.80
2024-02-10T21:37:37.742Z,6.13
2024-02-10T21:40:05.970Z,6.00
2024-02-10T21:42:32.881Z,5.50
2024-02-10T21:44:59.780Z,5.80
2024-02-10T21:47:29.330Z,7.67
2024-02-10T21:49:56.270Z,6.53
2024-02-10T21:52:23.448Z,6.03
2024-02-10T21:54:50.530Z,6.07
2024-02-10T21:57:17.537Z,7.73
2024-02-10T21:59:44.428Z,7.00
2024-02-10T22:02:11.420Z,7.03
2024-02-10T22:04:42.414Z,6.03
2024-02-10T22:07:09.344Z,7.43
2024-02-10T22:09:36.255Z,6.40
2024-02-10T22:12:03.197Z,7.27
2024-02-10T22:14:30.092Z,5.00
2024-02-10T22:16:57.253Z,4.50
2024-02-10T22:19:24.302Z,4.47
2024-02-10T22:21:53.789Z,6.27
2024-02-10T22:24:21.149Z,6.97
2024-02-10T22:26:48.159Z,6.53
2024-02-10T22:29:15.242Z,5.70
2024-02-10T22:31:42.230Z,7.87
2024-02-10T22:34:09.408Z,4.43
2024-02-10T22:36:36.409Z,5.07
2024-02-10T22:39:05.931Z,5.77
2024-02-10T22:41:32.893Z,4.87
2024-02-10T22:43:59.858Z,4.63
2024-02-10T22:46:26.765Z,4.13
2024-02-10T22:48:53.765Z,3.73
2024-02-10T22:51:20.670Z,3.60
2024-02-10T22:53:47.606Z,3.33
2024-02-10T22:56:17.218Z,3.80
2024-02-10T22:58:44.256Z,3.13
2024-02-10T23:01:11.267Z,3.70
2024-02-10T23:03:38.226Z,3.50
2024-02-10T23:06:05.610Z,4.47
2024-02-10T23:08:32.558Z,5.13
2024-02-10T23:10:59.543Z,5.67
2024-02-10T23:13:29.122Z,4.00
2024-02-10T23:15:56.318Z,4.13
2024-02-10T23:18:23.374Z,5.07
2024-02-10T23:20:50.391Z,5.43
2024-02-10T23:23:17.366Z,5.60
2024-02-10T23:25:45.434Z,4.77
2024-02-10T23:28:13.093Z,5.17
2024-02-10T23:30:44.042Z,5.63
2024-02-10T23:33:11.615Z,4.37
2024-02-10T23:35:38.673Z,4.90
2024-02-10T23:38:05.562Z,5.23
2024-02-10T23:40:32.499Z,6.73
2024-02-10T23:42:59.408Z,5.43
2024-02-10T23:45:26.330Z,5.63
2024-02-10T23:47:55.866Z,5.20
2024-02-10T23:50:22.858Z,5.43
2024-02-10T23:52:49.805Z,5.53
2024-02-10T23:55:16.891Z,6.13
2024-02-10T23:57:43.773Z,6.67
